createdAt,value
2018-01-20T00:00:34.305Z,12.30
2018-01-20T00:01:34.305Z,11.80
2018-01-20T00:02:34.301Z,11.20
2018-01-20T00:03:34.296Z,11.10
2018-01-20T00:04:34.292Z,11.30
2018-01-20T00:05:34.290Z,11.10
2018-01-20T00:06:34.284Z,11.40
2018-01-20T00:07:34.276Z,11.10
2018-01-20T00:08:34.270Z,11.50
2018-01-20T00:09:34.273Z,10.60
2018-01-20T00:10:34.266Z,11.10
2018-01-20T00:11:34.263Z,11.60
2018-01-20T00:12:34.259Z,11.70
2018-01-20T00:13:34.251Z,11.70
2018-01-20T00:14:34.248Z,10.30
2018-01-20T00:15:34.245Z,9.40
2018-01-20T00:16:34.237Z,9.90
2018-01-20T00:17:34.241Z,9.60
2018-01-20T00:18:34.230Z,9.30
2018-01-20T00:19:34.223Z,9.90
2018-01-20T00:20:34.221Z,10.20
2018-01-20T00:21:34.218Z,9.60
2018-01-20T00:22:34.213Z,9.80
2018-01-20T00:23:34.209Z,10.80
2018-01-20T00:24:34.205Z,11.10
2018-01-20T00:25:34.201Z,10.40
2018-01-20T00:26:34.196Z,9.70
2018-01-20T00:27:34.191Z,10.80
2018-01-20T00:28:34.187Z,10.10
2018-01-20T00:29:34.176Z,10.30
2018-01-20T00:30:34.176Z,11.50
2018-01-20T00:31:34.167Z,11.60
2018-01-20T00:32:34.166Z,11.70
2018-01-20T00:33:34.159Z,11.10
2018-01-20T00:34:34.158Z,10.90
2018-01-20T00:35:34.154Z,10.10
2018-01-20T00:36:34.147Z,9.90
2018-01-20T00:37:34.141Z,9.70
2018-01-20T00:38:34.138Z,9.40
2018-01-20T00:39:34.137Z,9.00
2018-01-20T00:40:34.127Z,9.60
2018-01-20T00:41:34.125Z,9.30
2018-01-20T00:42:34.124Z,9.60
2018-01-20T00:43:34.120Z,9.40
2018-01-20T00:44:34.111Z,9.10
2018-01-20T00:45:34.109Z,9.30
2018-01-20T00:46:34.103Z,9.30
2018-01-20T00:47:34.099Z,9.10
2018-01-20T00:48:34.091Z,8.90
2018-01-20T00:49:34.087Z,8.80
2018-01-20T00:50:34.087Z,9.40
2018-01-20T00:51:34.078Z,10.00
2018-01-20T00:52:34.076Z,10.70
2018-01-20T00:53:34.069Z,12.20
2018-01-20T00:54:34.067Z,12.20
2018-01-20T00:55:34.067Z,13.20
2018-01-20T00:56:34.062Z,12.40
2018-01-20T00:57:34.058Z,12.50
2018-01-20T00:58:34.047Z,13.40
2018-01-20T00:59:34.046Z,12.90
2018-01-20T01:00:34.042Z,13.40
2018-01-20T01:01:34.046Z,13.20
2018-01-20T01:02:34.034Z,12.50
2018-01-20T01:03:34.034Z,13.50
2018-01-20T01:04:34.020Z,13.60
2018-01-20T01:05:34.016Z,13.90
2018-01-20T01:06:34.012Z,13.90
2018-01-20T01:07:34.014Z,14.10
2018-01-20T01:08:34.005Z,14.60
2018-01-20T01:09:34.001Z,15.50
2018-01-20T01:10:33.995Z,14.70
2018-01-20T01:11:33.999Z,14.00
2018-01-20T01:12:33.986Z,14.50
2018-01-20T01:13:33.983Z,14.90
2018-01-20T01:14:33.983Z,14.00
2018-01-20T01:15:33.979Z,13.80
2018-01-20T01:16:33.972Z,14.20
2018-01-20T01:17:33.965Z,13.50
2018-01-20T01:18:33.965Z,14.20
2018-01-20T01:19:33.962Z,14.20
2018-01-20T01:20:33.956Z,14.50
2018-01-20T01:21:33.950Z,15.00
2018-01-20T01:22:33.944Z,16.80
2018-01-20T01:23:33.936Z,16.90
2018-01-20T01:24:33.934Z,16.10
2018-01-20T01:25:33.930Z,15.20
2018-01-20T01:26:33.927Z,15.80
2018-01-20T01:27:33.920Z,14.80
2018-01-20T01:28:33.916Z,15.00
2018-01-20T01:29:33.914Z,15.20
2018-01-20T01:30:33.907Z,14.80
2018-01-20T01:31:33.902Z,14.50
2018-01-20T01:32:33.898Z,15.20
2018-01-20T01:33:33.893Z,14.60
2018-01-20T01:34:33.886Z,14.10
2018-01-20T01:35:33.890Z,14.30
2018-01-20T01:36:33.883Z,16.10
2018-01-20T01:37:33.877Z,15.30
2018-01-20T01:38:33.872Z,14.30
2018-01-20T01:39:33.869Z,14.40
2018-01-20T01:40:33.864Z,14.30
2018-01-20T01:41:33.856Z,14.00
2018-01-20T01:42:33.861Z,13.70
2018-01-20T01:43:33.850Z,14.40
2018-01-20T01:44:33.839Z,13.80
2018-01-20T01:45:33.837Z,13.20
2018-01-20T01:46:33.834Z,13.60
2018-01-20T01:47:33.826Z,14.10
2018-01-20T01:48:33.823Z,13.70
2018-01-20T01:49:33.819Z,13.80
2018-01-20T01:50:33.813Z,13.50
2018-01-20T01:51:33.813Z,14.10
2018-01-20T01:52:33.805Z,14.90
2018-01-20T01:53:33.805Z,13.20
2018-01-20T01:54:33.796Z,13.90
2018-01-20T01:55:33.791Z,14.00
2018-01-20T01:56:33.791Z,14.10
2018-01-20T01:57:33.786Z,14.60
2018-01-20T01:58:33.787Z,13.40
2018-01-20T01:59:33.772Z,12.70
2018-01-20T02:00:33.770Z,14.10
2018-01-20T02:01:33.761Z,14.20
2018-01-20T02:02:33.761Z,13.60
2018-01-20T02:03:33.751Z,14.50
2018-01-20T02:04:33.753Z,14.60
2018-01-20T02:05:33.742Z,14.60
2018-01-20T02:06:33.738Z,16.10
2018-01-20T02:07:33.733Z,14.70
2018-01-20T02:08:33.730Z,14.40
2018-01-20T02:09:33.731Z,14.70
2018-01-20T02:10:33.724Z,15.50
2018-01-20T02:11:33.718Z,13.80
2018-01-20T02:12:33.709Z,15.00
2018-01-20T02:13:33.711Z,14.50
2018-01-20T02:14:33.703Z,14.60
2018-01-20T02:15:33.695Z,15.00
2018-01-20T02:16:33.690Z,14.00
2018-01-20T02:17:33.690Z,14.10
2018-01-20T02:18:33.683Z,13.50
2018-01-20T02:19:33.723Z,13.10
2018-01-20T02:20:33.676Z,13.70
2018-01-20T02:21:33.667Z,13.30
2018-01-20T02:22:33.667Z,13.80
2018-01-20T02:23:33.657Z,13.50
2018-01-20T02:24:33.662Z,13.40
2018-01-20T02:25:33.655Z,13.50
2018-01-20T02:26:33.645Z,13.40
2018-01-20T02:27:33.643Z,14.10
2018-01-20T02:28:33.636Z,13.20
2018-01-20T02:29:33.633Z,14.00
2018-01-20T02:30:33.626Z,13.70
2018-01-20T02:31:33.621Z,14.20
2018-01-20T02:32:33.618Z,13.30
2018-01-20T02:33:33.618Z,13.30
2018-01-20T02:34:33.611Z,14.30
2018-01-20T02:35:33.601Z,14.30
2018-01-20T02:36:33.601Z,14.00
2018-01-20T02:37:33.592Z,13.50
2018-01-20T02:38:33.590Z,14.30
2018-01-20T02:39:33.585Z,15.00
2018-01-20T02:40:33.582Z,14.60
2018-01-20T02:41:33.574Z,16.70
2018-01-20T02:42:33.574Z,15.40
2018-01-20T02:43:33.564Z,16.30
2018-01-20T02:44:33.564Z,16.60
2018-01-20T02:45:33.557Z,17.20
2018-01-20T02:46:33.558Z,15.80
2018-01-20T02:47:33.550Z,16.50
2018-01-20T02:48:33.530Z,16.60
2018-01-20T02:49:33.524Z,17.00
2018-01-20T02:50:33.534Z,17.40
2018-01-20T02:51:33.510Z,16.90
2018-01-20T02:52:33.605Z,16.30
2018-01-20T02:53:33.502Z,17.10
2018-01-20T02:54:33.497Z,17.40
2018-01-20T02:55:33.497Z,17.20
2018-01-20T02:56:33.487Z,17.50
2018-01-20T02:57:33.504Z,18.00
2018-01-20T02:58:33.600Z,17.80
2018-01-20T02:59:33.477Z,17.30
2018-01-20T03:00:33.477Z,16.50
2018-01-20T03:01:33.485Z,16.60
2018-01-20T03:02:33.481Z,16.30
2018-01-20T03:03:33.471Z,17.10
2018-01-20T03:04:33.455Z,15.90
2018-01-20T03:05:33.447Z,15.80
2018-01-20T03:06:33.457Z,15.80
2018-01-20T03:07:33.456Z,14.90
2018-01-20T03:08:33.434Z,15.60
2018-01-20T03:09:33.475Z,15.60
2018-01-20T03:10:33.443Z,15.80
2018-01-20T03:11:33.418Z,15.40
2018-01-20T03:12:33.432Z,15.00
2018-01-20T03:13:33.409Z,15.80
2018-01-20T03:14:33.423Z,14.80
2018-01-20T03:15:33.399Z,15.50
2018-01-20T03:16:33.396Z,14.70
2018-01-20T03:17:33.408Z,15.60
2018-01-20T03:18:33.404Z,14.90
2018-01-20T03:19:33.408Z,15.90
2018-01-20T03:20:33.375Z,15.20
2018-01-20T03:21:33.371Z,14.50
2018-01-20T03:22:33.382Z,15.60
2018-01-20T03:23:33.375Z,16.20
2018-01-20T03:24:33.375Z,15.90
2018-01-20T03:25:33.370Z,15.60
2018-01-20T03:26:33.362Z,16.40
2018-01-20T03:27:33.356Z,16.30
2018-01-20T03:28:33.452Z,16.10
2018-01-20T03:29:33.351Z,16.00
2018-01-20T03:30:33.343Z,16.80
2018-01-20T03:31:33.340Z,17.00
2018-01-20T03:32:33.335Z,16.20
2018-01-20T03:33:33.333Z,15.90
2018-01-20T03:34:33.323Z,15.90
2018-01-20T03:35:33.321Z,16.50
2018-01-20T03:36:33.316Z,16.70
2018-01-20T03:37:33.320Z,17.00
2018-01-20T03:38:33.304Z,16.10
2018-01-20T03:39:33.298Z,16.50
2018-01-20T03:40:33.298Z,16.50
2018-01-20T03:41:33.293Z,15.60
2018-01-20T03:42:33.284Z,16.40
2018-01-20T03:43:33.278Z,17.00
2018-01-20T03:44:33.278Z,16.80
2018-01-20T03:45:33.273Z,16.60
2018-01-20T03:46:33.269Z,17.10
2018-01-20T03:47:33.260Z,17.60
2018-01-20T03:48:33.259Z,16.20
2018-01-20T03:49:33.254Z,16.00
2018-01-20T03:50:33.246Z,15.90
2018-01-20T03:51:33.243Z,16.40
2018-01-20T03:52:33.236Z,15.10
2018-01-20T03:53:33.234Z,15.30
2018-01-20T03:54:33.227Z,15.70
2018-01-20T03:55:33.220Z,15.40
2018-01-20T03:56:33.216Z,15.10
2018-01-20T03:57:33.215Z,15.30
2018-01-20T03:58:33.306Z,15.90
2018-01-20T03:59:33.201Z,14.70
2018-01-20T04:00:33.228Z,15.40
2018-01-20T04:01:33.186Z,15.70
2018-01-20T04:02:33.186Z,16.00
2018-01-20T04:03:33.184Z,16.20
2018-01-20T04:04:33.176Z,16.60
2018-01-20T04:05:33.166Z,17.10
2018-01-20T04:06:33.167Z,17.00
2018-01-20T04:07:33.164Z,17.70
2018-01-20T04:08:33.160Z,17.90
2018-01-20T04:09:33.152Z,16.70
2018-01-20T04:10:33.138Z,17.00
2018-01-20T04:11:33.142Z,18.00
2018-01-20T04:12:33.140Z,16.90
2018-01-20T04:13:33.130Z,17.60
2018-01-20T04:14:33.121Z,17.70
2018-01-20T04:15:33.122Z,17.40
2018-01-20T04:16:33.121Z,17.80
2018-01-20T04:17:33.116Z,16.60
2018-01-20T04:18:33.098Z,16.60
2018-01-20T04:19:33.102Z,15.90
2018-01-20T04:20:33.097Z,15.30
2018-01-20T04:21:33.092Z,15.30
2018-01-20T04:22:33.080Z,15.70
2018-01-20T04:23:33.086Z,15.80
2018-01-20T04:24:33.079Z,16.20
2018-01-20T04:25:33.076Z,16.60
2018-01-20T04:26:33.068Z,16.10
2018-01-20T04:27:33.062Z,14.70
2018-01-20T04:28:33.061Z,14.90
2018-01-20T04:29:33.052Z,14.80
2018-01-20T04:30:33.048Z,14.30
2018-01-20T04:31:33.046Z,15.20
2018-01-20T04:32:33.041Z,15.80
2018-01-20T04:33:33.037Z,14.60
2018-01-20T04:34:33.133Z,14.80
2018-01-20T04:35:33.021Z,14.90
2018-01-20T04:36:33.021Z,14.50
2018-01-20T04:37:33.016Z,15.50
2018-01-20T04:38:33.014Z,15.70
2018-01-20T04:39:33.005Z,15.60
2018-01-20T04:40:32.996Z,15.20
2018-01-20T04:41:32.991Z,16.60
2018-01-20T04:42:32.987Z,18.30
2018-01-20T04:43:32.974Z,20.20
2018-01-20T04:44:32.974Z,21.50
2018-01-20T04:45:32.970Z,21.70
2018-01-20T04:46:33.066Z,22.60
2018-01-20T04:47:32.958Z,22.80
2018-01-20T04:48:32.949Z,22.00
2018-01-20T04:49:32.941Z,24.40
2018-01-20T04:50:32.945Z,22.10
2018-01-20T04:51:32.934Z,23.70
2018-01-20T04:52:33.037Z,24.20
2018-01-20T04:53:32.929Z,26.90
2018-01-20T04:54:32.920Z,25.00
2018-01-20T04:55:32.923Z,27.50
2018-01-20T04:56:32.919Z,27.90
2018-01-20T04:57:32.909Z,29.30
2018-01-20T04:58:32.903Z,30.20
2018-01-20T04:59:32.888Z,30.40
2018-01-20T05:00:32.897Z,32.20
2018-01-20T05:01:32.887Z,32.60
2018-01-20T05:02:32.886Z,32.80
2018-01-20T05:03:32.867Z,33.20
2018-01-20T05:04:32.862Z,34.60
2018-01-20T05:05:32.868Z,32.80
2018-01-20T05:06:32.859Z,32.90
2018-01-20T05:07:32.858Z,34.50
2018-01-20T05:08:32.842Z,34.90
2018-01-20T05:09:32.847Z,35.60
2018-01-20T05:10:32.843Z,35.20
2018-01-20T05:11:32.827Z,34.40
2018-01-20T05:12:32.833Z,33.50
2018-01-20T05:13:32.802Z,34.60
2018-01-20T05:14:32.813Z,34.60
2018-01-20T05:15:32.816Z,34.90
2018-01-20T05:16:32.788Z,34.60
2018-01-20T05:17:32.803Z,36.20
2018-01-20T05:18:32.778Z,35.50
2018-01-20T05:19:32.781Z,35.50
2018-01-20T05:20:32.767Z,35.40
2018-01-20T05:21:32.767Z,37.80
2018-01-20T05:22:32.882Z,38.50
2018-01-20T05:23:32.752Z,37.90
2018-01-20T05:24:32.758Z,38.10
2018-01-20T05:25:32.742Z,37.70
2018-01-20T05:26:32.743Z,35.60
2018-01-20T05:27:32.746Z,34.20
2018-01-20T05:28:32.742Z,31.00
2018-01-20T05:29:32.722Z,31.30
2018-01-20T05:30:32.732Z,29.30
2018-01-20T05:31:32.723Z,29.30
2018-01-20T05:32:32.731Z,29.70
2018-01-20T05:33:32.723Z,30.30
2018-01-20T05:34:32.706Z,29.20
2018-01-20T05:35:32.697Z,28.70
2018-01-20T05:36:32.706Z,28.80
2018-01-20T05:37:32.701Z,29.40
2018-01-20T05:38:32.688Z,27.70
2018-01-20T07:14:35.799Z,27.00
2018-01-20T07:15:32.188Z,26.40
2018-01-20T07:16:32.182Z,26.00
2018-01-20T07:17:32.178Z,27.60
2018-01-20T07:18:32.178Z,26.40
2018-01-20T07:19:32.172Z,26.30
2018-01-20T07:20:32.163Z,26.70
2018-01-20T07:21:32.159Z,25.60
2018-01-20T07:22:32.158Z,25.70
2018-01-20T07:23:32.155Z,26.40
2018-01-20T07:24:32.143Z,26.30
2018-01-20T07:25:32.143Z,25.10
2018-01-20T07:26:32.134Z,26.20
2018-01-20T07:27:32.133Z,26.60
2018-01-20T07:28:32.128Z,27.20
2018-01-20T07:29:32.119Z,25.10
2018-01-20T07:30:32.117Z,25.20
2018-01-20T07:31:32.111Z,25.50
2018-01-20T07:32:32.103Z,23.70
2018-01-20T07:33:32.103Z,23.30
2018-01-20T07:34:32.098Z,22.20
2018-01-20T07:35:32.093Z,21.10
2018-01-20T07:36:32.088Z,22.70
2018-01-20T07:37:32.084Z,24.30
2018-01-20T07:38:32.082Z,23.40
2018-01-20T07:39:32.069Z,20.70
2018-01-20T07:40:32.071Z,22.10
2018-01-20T07:41:32.059Z,22.40
2018-01-20T07:42:32.058Z,22.20
2018-01-20T07:43:32.053Z,21.20
2018-01-20T07:44:32.043Z,21.30
2018-01-20T07:45:32.044Z,21.20
2018-01-20T07:46:32.042Z,20.70
2018-01-20T07:47:32.032Z,21.90
2018-01-20T07:48:32.031Z,21.50
2018-01-20T07:49:32.028Z,21.50
2018-01-20T07:50:32.018Z,22.30
2018-01-20T07:51:32.016Z,21.60
2018-01-20T07:52:32.011Z,22.30
2018-01-20T07:53:32.003Z,20.70
2018-01-20T07:54:32.002Z,21.90
2018-01-20T07:55:31.996Z,22.30
2018-01-20T07:56:32.091Z,21.50
2018-01-20T07:57:31.986Z,21.50
2018-01-20T07:58:31.981Z,21.30
2018-01-20T07:59:31.976Z,22.00
2018-01-20T08:00:31.971Z,21.90
2018-01-20T08:01:31.967Z,21.80
2018-01-20T08:02:31.962Z,21.80
2018-01-20T08:03:31.956Z,22.20
2018-01-20T08:04:31.952Z,22.80
2018-01-20T08:05:31.947Z,22.70
2018-01-20T08:06:31.942Z,22.60
2018-01-20T08:07:31.937Z,21.00
2018-01-20T08:08:31.932Z,21.40
2018-01-20T08:09:31.928Z,22.00
2018-01-20T08:10:31.923Z,23.00
2018-01-20T08:11:31.917Z,22.00
2018-01-20T08:12:31.908Z,23.40
2018-01-20T08:13:31.908Z,21.70
2018-01-20T08:14:32.004Z,22.90
2018-01-20T08:15:31.897Z,23.30
2018-01-20T08:16:31.888Z,24.40
2018-01-20T08:17:31.888Z,22.40
2018-01-20T08:18:31.883Z,22.80
2018-01-20T08:19:31.873Z,22.50
2018-01-20T08:20:31.873Z,23.50
2018-01-20T08:21:31.868Z,21.80
2018-01-20T08:22:31.859Z,22.50
2018-01-20T08:23:31.853Z,22.00
2018-01-20T08:24:31.853Z,21.60
2018-01-20T08:25:31.844Z,22.40
2018-01-20T08:26:31.944Z,21.10
2018-01-20T08:27:31.838Z,21.90
2018-01-20T08:28:31.811Z,22.20
2018-01-20T08:29:31.829Z,21.50
2018-01-20T08:30:31.807Z,22.90
2018-01-20T08:31:31.802Z,21.80
2018-01-20T08:32:31.798Z,22.40
2018-01-20T08:33:31.792Z,23.10
2018-01-20T08:34:31.783Z,21.60
2018-01-20T08:35:31.777Z,21.20
2018-01-20T08:36:31.778Z,21.60
2018-01-20T08:37:31.772Z,21.60
2018-01-20T08:38:31.886Z,22.50
2018-01-20T08:39:31.781Z,22.90
2018-01-20T08:40:31.757Z,24.00
2018-01-20T08:41:31.753Z,25.50
2018-01-20T08:42:31.748Z,25.50
2018-01-20T08:43:31.744Z,25.50
2018-01-20T08:44:31.734Z,26.90
2018-01-20T08:45:31.734Z,26.40
2018-01-20T08:46:31.725Z,26.80
2018-01-20T08:47:31.723Z,26.00
2018-01-20T08:48:31.719Z,25.00
2018-01-20T08:49:31.716Z,26.50
2018-01-20T08:50:31.708Z,25.30
2018-01-20T08:51:31.705Z,25.90
2018-01-20T08:52:31.700Z,25.80
2018-01-20T08:53:31.692Z,27.10
2018-01-20T08:54:31.691Z,26.00
2018-01-20T08:55:31.686Z,26.10
2018-01-20T08:56:31.782Z,24.80
2018-01-20T08:57:31.673Z,25.70
2018-01-20T08:58:31.672Z,24.00
2018-01-20T08:59:31.669Z,22.80
2018-01-20T09:00:31.661Z,22.90
2018-01-20T09:01:31.659Z,22.70
2018-01-20T09:02:31.754Z,21.90
2018-01-20T09:03:31.650Z,21.50
2018-01-20T09:04:31.659Z,22.40
2018-01-20T09:05:31.651Z,21.00
2018-01-20T09:06:31.637Z,20.50
2018-01-20T09:07:31.626Z,21.40
2018-01-20T09:08:31.641Z,20.90
2018-01-20T09:09:31.638Z,19.80
2018-01-20T09:10:31.632Z,20.00
2018-01-20T09:11:31.613Z,20.60
2018-01-20T09:12:31.618Z,19.60
2018-01-20T09:13:31.606Z,20.70
2018-01-20T09:14:31.600Z,20.80
2018-01-20T09:15:31.608Z,20.50
2018-01-20T09:16:31.608Z,20.00
2018-01-20T09:17:31.600Z,20.00
2018-01-20T09:18:31.595Z,20.20
2018-01-20T09:19:31.594Z,19.30
2018-01-20T09:20:31.590Z,21.00
2018-01-20T09:21:31.588Z,20.60
2018-01-20T09:22:31.582Z,19.90
2018-01-20T09:23:31.574Z,21.00
2018-01-20T09:24:31.569Z,20.20
2018-01-20T09:25:31.560Z,19.20
2018-01-20T09:26:31.562Z,20.30
2018-01-20T09:27:31.554Z,20.20
2018-01-20T09:28:31.554Z,20.10
2018-01-20T09:29:31.549Z,20.30
2018-01-20T09:30:31.545Z,18.80
2018-01-20T09:31:31.536Z,20.80
2018-01-20T09:32:31.532Z,19.20
2018-01-20T09:33:31.531Z,20.50
2018-01-20T09:34:31.525Z,20.20
2018-01-20T09:35:31.521Z,20.00
2018-01-20T09:36:31.513Z,19.20
2018-01-20T09:37:31.490Z,20.00
2018-01-20T09:38:31.490Z,19.50
2018-01-20T09:39:31.502Z,19.90
2018-01-20T09:40:31.480Z,19.60
2018-01-20T09:41:31.494Z,19.70
2018-01-20T09:42:31.489Z,20.60
2018-01-20T09:43:31.484Z,21.40
2018-01-20T09:44:31.561Z,20.10
2018-01-20T09:45:31.475Z,20.30
2018-01-20T09:46:31.453Z,20.40
2018-01-20T09:47:31.466Z,21.20
2018-01-20T09:48:31.438Z,19.80
2018-01-20T09:49:31.438Z,20.50
2018-01-20T09:50:31.549Z,21.00
2018-01-20T09:51:31.466Z,20.70
2018-01-20T09:52:31.427Z,20.10
2018-01-20T09:53:31.420Z,20.20
2018-01-20T09:54:31.417Z,20.70
2018-01-20T09:55:31.425Z,21.70
2018-01-20T09:56:31.407Z,22.10
2018-01-20T09:57:31.416Z,20.80
2018-01-20T09:58:31.394Z,22.30
2018-01-20T09:59:31.389Z,22.60
2018-01-20T10:00:31.387Z,21.70
2018-01-20T10:01:31.398Z,20.90
2018-01-20T10:02:31.393Z,22.90
2018-01-20T10:03:31.388Z,21.90
2018-01-20T10:04:31.384Z,21.60
2018-01-20T10:05:31.365Z,23.00
2018-01-20T10:06:31.361Z,21.60
2018-01-20T10:07:31.370Z,20.40
2018-01-20T10:08:31.466Z,21.30
2018-01-20T10:09:31.361Z,20.50
2018-01-20T10:10:31.358Z,20.30
2018-01-20T10:11:31.334Z,20.30
2018-01-20T10:12:31.344Z,19.90
2018-01-20T10:13:31.330Z,19.70
2018-01-20T10:14:31.340Z,19.60
2018-01-20T10:15:31.331Z,19.40
2018-01-20T10:16:31.334Z,18.50
2018-01-20T10:17:31.311Z,18.80
2018-01-20T10:18:31.326Z,18.00
2018-01-20T10:19:31.303Z,18.50
2018-01-20T10:20:31.367Z,16.70
2018-01-20T10:21:31.313Z,17.10
2018-01-20T10:22:31.286Z,16.90
2018-01-20T10:23:31.299Z,17.60
2018-01-20T10:24:31.280Z,17.00
2018-01-20T10:25:31.280Z,16.50
2018-01-20T10:26:31.272Z,17.70
2018-01-20T10:27:31.270Z,17.30
2018-01-20T10:28:31.259Z,16.70
2018-01-20T10:29:31.263Z,16.90
2018-01-20T10:30:31.256Z,16.80
2018-01-20T10:31:31.246Z,16.00
2018-01-20T10:32:31.248Z,16.30
2018-01-20T10:33:31.243Z,15.40
2018-01-20T10:34:31.240Z,15.50
2018-01-20T10:35:31.234Z,16.10
2018-01-20T10:36:31.229Z,16.50
2018-01-20T10:37:31.226Z,16.30
2018-01-20T10:38:31.317Z,15.40
2018-01-20T10:39:31.216Z,16.20
2018-01-20T10:40:31.213Z,15.10
2018-01-20T10:41:31.204Z,16.00
2018-01-20T10:42:31.200Z,15.30
2018-01-20T10:43:31.200Z,15.00
2018-01-20T10:44:31.191Z,15.30
2018-01-20T10:45:31.193Z,15.00
2018-01-20T10:46:31.189Z,14.80
2018-01-20T10:47:31.183Z,15.20
2018-01-20T10:48:31.175Z,15.70
2018-01-20T10:49:31.167Z,16.40
2018-01-20T10:50:31.163Z,15.70
2018-01-20T10:51:31.169Z,16.50
2018-01-20T10:52:31.155Z,15.10
2018-01-20T10:53:31.150Z,15.10
2018-01-20T10:54:31.156Z,15.20
2018-01-20T10:55:31.153Z,14.70
2018-01-20T10:56:31.143Z,14.80
2018-01-20T10:57:31.140Z,14.30
2018-01-20T10:58:31.131Z,13.80
2018-01-20T10:59:31.147Z,13.10
2018-01-20T11:00:31.146Z,14.40
2018-01-20T11:01:31.133Z,13.80
2018-01-20T11:02:31.132Z,12.80
2018-01-20T11:03:31.134Z,11.50
2018-01-20T11:04:31.121Z,12.80
2018-01-20T11:05:31.126Z,12.70
2018-01-20T11:06:31.117Z,11.90
2018-01-20T11:07:31.108Z,12.00
2018-01-20T11:08:31.090Z,11.60
2018-01-20T11:09:31.097Z,11.40
2018-01-20T11:10:31.082Z,11.80
2018-01-20T11:11:31.086Z,11.20
2018-01-20T11:12:31.084Z,12.00
2018-01-20T11:13:31.086Z,12.30
2018-01-20T11:14:31.091Z,11.20
2018-01-20T11:15:31.063Z,11.10
2018-01-20T11:16:31.072Z,10.70
2018-01-20T11:17:31.054Z,10.90
2018-01-20T11:18:31.075Z,11.20
2018-01-20T11:19:31.063Z,10.40
2018-01-20T11:20:31.058Z,10.50
2018-01-20T11:21:31.055Z,10.90
2018-01-20T11:22:31.051Z,9.70
2018-01-20T11:23:31.060Z,9.60
2018-01-20T11:24:31.052Z,10.50
2018-01-20T11:25:31.055Z,9.80
2018-01-20T11:26:31.041Z,10.40
2018-01-20T11:27:31.032Z,10.60
2018-01-20T11:28:31.030Z,10.80
2018-01-20T11:29:31.034Z,9.80
2018-01-20T11:30:31.031Z,10.10
2018-01-20T11:31:31.027Z,9.90
2018-01-20T11:32:31.015Z,9.70
2018-01-20T11:33:31.012Z,9.70
2018-01-20T11:34:31.021Z,8.90
2018-01-20T11:35:31.017Z,9.30
2018-01-20T11:36:31.010Z,10.00
2018-01-20T11:37:31.011Z,9.60
2018-01-20T11:38:31.004Z,10.00
2018-01-20T11:39:30.996Z,10.30
2018-01-20T11:40:30.991Z,10.00
2018-01-20T11:41:30.998Z,10.60
2018-01-20T11:42:30.984Z,10.10
2018-01-20T11:43:30.991Z,10.40
2018-01-20T11:44:30.988Z,9.80
2018-01-20T11:45:30.976Z,10.40
2018-01-20T11:46:30.969Z,10.30
2018-01-20T11:47:30.970Z,9.50
2018-01-20T11:48:30.964Z,9.20
2018-01-20T11:49:30.963Z,9.50
2018-01-20T11:50:30.969Z,8.90
2018-01-20T11:51:30.960Z,9.00
2018-01-20T11:52:30.939Z,9.50
2018-01-20T11:53:30.953Z,8.90
2018-01-20T11:54:30.972Z,8.60
2018-01-20T11:55:30.943Z,8.80
2018-01-20T11:56:30.931Z,9.20
2018-01-20T11:57:30.926Z,9.40
2018-01-20T11:58:30.940Z,8.80
2018-01-20T11:59:30.938Z,8.50
2018-01-20T12:00:30.910Z,8.60
2018-01-20T12:01:30.936Z,9.00
2018-01-20T12:02:31.004Z,8.70
2018-01-20T12:03:30.910Z,8.60
2018-01-20T12:04:30.916Z,9.00
2018-01-20T12:05:30.914Z,9.50
2018-01-20T12:06:30.920Z,10.00
2018-01-20T12:07:30.889Z,9.70
2018-01-20T12:08:30.997Z,10.30
2018-01-20T12:09:30.912Z,11.10
2018-01-20T12:10:30.909Z,9.90
2018-01-20T12:11:30.905Z,10.80
2018-01-20T12:12:30.899Z,9.00
2018-01-20T12:13:30.873Z,8.60
2018-01-20T12:14:30.879Z,9.10
2018-01-20T12:15:30.867Z,9.00
2018-01-20T12:16:30.885Z,9.70
2018-01-20T12:17:30.872Z,9.20
2018-01-20T12:18:30.886Z,10.20
2018-01-20T12:19:30.884Z,10.30
2018-01-20T12:20:30.880Z,10.50
2018-01-20T12:21:30.877Z,10.10
2018-01-20T12:22:30.847Z,8.90
2018-01-20T12:23:30.855Z,8.40
2018-01-20T12:24:30.860Z,9.20
2018-01-20T12:25:30.867Z,9.40
2018-01-20T12:26:30.947Z,9.60
2018-01-20T12:27:30.858Z,8.70
2018-01-20T12:28:30.855Z,9.70
2018-01-20T12:29:30.831Z,9.20
2018-01-20T12:30:30.851Z,8.70
2018-01-20T12:31:30.852Z,10.20
2018-01-20T12:32:30.850Z,9.60
2018-01-20T12:33:30.848Z,8.70
2018-01-20T12:34:30.829Z,8.60
2018-01-20T12:35:30.815Z,8.10
2018-01-20T12:36:30.815Z,8.10
2018-01-20T12:37:30.822Z,8.80
2018-01-20T12:38:30.828Z,7.60
2018-01-20T12:39:30.834Z,8.20
2018-01-20T12:40:30.829Z,8.20
2018-01-20T12:41:30.813Z,7.10
2018-01-20T12:42:30.810Z,7.20
2018-01-20T12:43:30.826Z,7.40
2018-01-20T12:44:30.807Z,7.50
2018-01-20T12:45:30.815Z,6.20
2018-01-20T12:46:30.817Z,6.70
2018-01-20T12:47:30.795Z,7.70
2018-01-20T12:48:30.825Z,8.10
2018-01-20T12:49:30.811Z,7.00
2018-01-20T12:50:30.891Z,8.10
2018-01-20T12:51:30.806Z,7.50
2018-01-20T12:52:30.805Z,7.00
2018-01-20T12:53:30.784Z,6.40
2018-01-20T12:54:30.806Z,7.20
2018-01-20T12:55:30.811Z,6.80
2018-01-20T12:56:30.802Z,5.90
2018-01-20T12:57:30.800Z,6.00
2018-01-20T12:58:30.795Z,5.90
2018-01-20T12:59:30.777Z,6.00
2018-01-20T13:00:30.777Z,5.70
2018-01-20T13:01:30.771Z,6.10
2018-01-20T13:02:30.787Z,5.80
2018-01-20T13:03:30.766Z,5.10
2018-01-20T13:04:30.765Z,5.10
2018-01-20T13:05:30.763Z,5.70
2018-01-20T13:06:30.766Z,5.80
2018-01-20T13:07:30.760Z,5.60
2018-01-20T13:08:30.762Z,5.10
2018-01-20T13:09:30.757Z,4.90
2018-01-20T13:10:30.776Z,4.90
2018-01-20T13:11:30.756Z,5.40
2018-01-20T13:12:30.771Z,4.40
2018-01-20T13:13:30.774Z,4.70
2018-01-20T13:14:30.769Z,5.10
2018-01-20T13:15:30.766Z,5.90
2018-01-20T13:16:30.765Z,6.50
2018-01-20T13:17:30.768Z,6.10
2018-01-20T13:18:30.749Z,6.20
2018-01-20T13:19:30.742Z,7.20
2018-01-20T13:20:30.741Z,8.20
2018-01-20T13:21:30.760Z,7.50
2018-01-20T13:22:30.754Z,8.00
2018-01-20T13:23:30.738Z,8.10
2018-01-20T13:24:30.741Z,8.70
2018-01-20T13:25:30.736Z,7.40
2018-01-20T13:26:30.752Z,12.10
2018-01-20T13:27:30.743Z,10.80
2018-01-20T13:28:30.752Z,10.90
2018-01-20T13:29:30.738Z,10.50
2018-01-20T13:30:30.737Z,10.70
2018-01-20T13:31:30.734Z,10.00
2018-01-20T13:32:30.733Z,10.50
2018-01-20T13:33:30.734Z,11.60
2018-01-20T13:34:30.746Z,11.90
2018-01-20T13:35:30.731Z,11.70
2018-01-20T13:36:30.728Z,11.20
2018-01-20T13:37:30.744Z,13.00
2018-01-20T13:38:30.828Z,13.60
2018-01-20T13:39:30.726Z,13.70
2018-01-20T13:40:30.741Z,12.60
2018-01-20T13:41:30.721Z,12.80
2018-01-20T13:42:30.721Z,11.70
2018-01-20T13:43:30.719Z,11.90
2018-01-20T13:44:30.719Z,9.90
2018-01-20T13:45:30.720Z,11.70
2018-01-20T13:46:30.733Z,10.40
2018-01-20T13:47:30.732Z,9.50
2018-01-20T13:48:30.723Z,10.20
2018-01-20T13:49:30.732Z,10.70
2018-01-20T13:50:30.836Z,10.90
2018-01-20T13:51:30.722Z,9.90
2018-01-20T13:52:30.716Z,10.20
2018-01-20T13:53:30.722Z,10.40
2018-01-20T13:54:30.734Z,10.70
2018-01-20T13:55:30.722Z,10.70
2018-01-20T13:56:30.735Z,11.40
2018-01-20T13:57:30.736Z,10.30
2018-01-20T13:58:30.732Z,9.80
2018-01-20T13:59:30.731Z,9.30
2018-01-20T14:00:30.717Z,10.30
2018-01-20T14:01:30.732Z,11.90
2018-01-20T14:02:30.837Z,10.80
2018-01-20T14:03:30.733Z,12.80
2018-01-20T14:04:30.719Z,10.70
2018-01-20T14:05:30.725Z,9.70
2018-01-20T14:06:30.735Z,9.40
2018-01-20T14:07:30.726Z,9.20
2018-01-20T14:08:30.725Z,9.30
2018-01-20T14:09:30.744Z,8.90
2018-01-20T14:10:30.741Z,11.00
2018-01-20T14:11:30.741Z,11.90
2018-01-20T14:12:30.746Z,12.20
2018-01-20T14:13:30.742Z,12.60
2018-01-20T14:14:30.745Z,15.00
2018-01-20T14:15:30.743Z,15.00
2018-01-20T14:16:30.747Z,12.60
2018-01-20T14:17:30.744Z,12.50
2018-01-20T14:18:30.743Z,10.70
2018-01-20T14:19:30.745Z,11.30
2018-01-20T14:20:30.743Z,11.40
2018-01-20T14:21:30.750Z,11.40
2018-01-20T14:22:30.740Z,11.80
2018-01-20T14:23:30.744Z,10.50
2018-01-20T14:24:30.743Z,11.60
2018-01-20T14:25:30.744Z,10.90
2018-01-20T14:26:30.744Z,10.80
2018-01-20T14:27:30.743Z,9.70
2018-01-20T14:28:30.748Z,9.30
2018-01-20T14:29:30.744Z,9.70
2018-01-20T14:30:30.748Z,9.40
2018-01-20T14:31:30.743Z,9.00
2018-01-20T14:32:30.744Z,8.90